createdAt,value
2023-05-10T00:00:05.686Z,15.63
2023-05-10T00:02:08.285Z,15.61
2023-05-10T00:04:11.021Z,15.63
2023-05-10T00:06:13.643Z,15.65
2023-05-10T00:08:16.212Z,15.59
2023-05-10T00:10:18.970Z,15.45
2023-05-10T00:12:21.697Z,15.41
2023-05-10T00:14:25.656Z,15.44
2023-05-10T00:16:28.278Z,15.44
2023-05-10T00:18:30.899Z,15.30
2023-05-10T00:20:33.517Z,15.25
2023-05-10T00:22:36.390Z,15.30
2023-05-10T00:24:38.987Z,15.17
2023-05-10T00:26:43.119Z,14.99
2023-05-10T00:28:45.678Z,15.03
2023-05-10T00:30:49.629Z,15.02
2023-05-10T00:32:52.782Z,14.96
2023-05-10T00:34:55.744Z,15.00
2023-05-10T00:36:58.785Z,14.75
2023-05-10T00:39:01.472Z,14.73
2023-05-10T00:41:04.335Z,14.46
2023-05-10T00:43:07.314Z,14.32
2023-05-10T00:45:10.346Z,14.32
2023-05-10T00:47:14.594Z,14.16
2023-05-10T00:49:17.984Z,14.18
2023-05-10T00:51:20.717Z,14.18
2023-05-10T00:53:23.712Z,14.22
2023-05-10T00:55:26.787Z,14.12
2023-05-10T00:57:29.427Z,14.24
2023-05-10T00:59:32.081Z,14.29
2023-05-10T01:01:34.737Z,14.30
2023-05-10T01:03:39.251Z,14.42
2023-05-10T01:05:42.026Z,14.46
2023-05-10T01:07:44.560Z,14.47
2023-05-10T01:09:47.509Z,14.46
2023-05-10T01:11:51.409Z,14.60
2023-05-10T01:13:58.382Z,14.64
2023-05-10T01:16:02.975Z,14.69
2023-05-10T01:18:05.926Z,14.74
2023-05-10T01:20:12.574Z,14.81
2023-05-10T01:22:41.512Z,14.73
2023-05-10T01:25:13.543Z,14.76
2023-05-10T01:27:27.403Z,14.81
2023-05-10T01:30:05.053Z,14.78
2023-05-10T01:32:26.745Z,14.72
2023-05-10T01:34:36.474Z,14.63
2023-05-10T01:36:45.295Z,14.55
2023-05-10T01:38:52.144Z,14.35
2023-05-10T01:41:04.191Z,14.43
2023-05-10T01:43:24.284Z,14.34
2023-05-10T01:45:32.754Z,14.37
2023-05-10T01:47:40.948Z,14.49
2023-05-10T01:49:48.454Z,14.50
2023-05-10T01:51:55.660Z,14.59
2023-05-10T01:54:02.615Z,14.60
2023-05-10T01:56:06.267Z,14.60
2023-05-10T01:58:11.878Z,14.46
2023-05-10T02:00:17.236Z,14.50
2023-05-10T02:02:22.668Z,14.54
2023-05-10T02:04:27.390Z,14.30
2023-05-10T02:06:30.413Z,14.50
2023-05-10T02:08:35.651Z,14.46
2023-05-10T02:10:39.650Z,14.52
2023-05-10T02:12:45.351Z,14.58
2023-05-10T02:14:49.522Z,14.67
2023-05-10T02:16:53.901Z,14.74
2023-05-10T02:18:59.195Z,14.79
2023-05-10T02:21:03.867Z,14.78
2023-05-10T02:23:09.346Z,14.80
2023-05-10T02:25:15.228Z,14.75
2023-05-10T02:27:19.283Z,14.75
2023-05-10T02:29:24.257Z,14.77
2023-05-10T02:31:27.537Z,14.80
2023-05-10T02:33:33.555Z,14.64
2023-05-10T02:35:37.161Z,14.74
2023-05-10T02:37:42.469Z,14.69
2023-05-10T02:39:46.496Z,14.78
2023-05-10T02:41:51.139Z,14.75
2023-05-10T02:43:57.915Z,14.79
2023-05-10T02:46:00.596Z,14.72
2023-05-10T02:48:03.799Z,14.62
2023-05-10T02:50:07.485Z,14.58
2023-05-10T02:52:11.151Z,14.60
2023-05-10T02:54:20.572Z,14.69
2023-05-10T02:56:30.716Z,14.75
2023-05-10T02:58:33.335Z,14.81
2023-05-10T03:00:37.261Z,14.83
2023-05-10T03:02:39.875Z,14.88
2023-05-10T03:04:42.529Z,14.87
2023-05-10T03:06:45.800Z,14.89
2023-05-10T03:08:48.612Z,14.94
2023-05-10T03:11:03.359Z,14.95
2023-05-10T03:13:15.119Z,14.99
2023-05-10T03:15:24.351Z,15.00
2023-05-10T03:17:32.634Z,14.91
2023-05-10T03:19:44.519Z,14.87
2023-05-10T03:21:49.603Z,14.83
2023-05-10T03:23:56.581Z,14.87
2023-05-10T03:26:02.238Z,14.90
2023-05-10T03:28:06.699Z,14.91
2023-05-10T03:30:12.387Z,14.95
2023-05-10T03:32:15.039Z,14.92
2023-05-10T03:34:18.365Z,14.93
2023-05-10T03:36:21.550Z,14.92
2023-05-10T03:38:23.191Z,14.94
2023-05-10T03:40:25.768Z,14.93
2023-05-10T03:42:29.679Z,14.91
2023-05-10T03:44:32.295Z,14.93
2023-05-10T03:46:34.925Z,14.91
2023-05-10T03:48:37.500Z,14.90
2023-05-10T03:50:40.132Z,14.83
2023-05-10T03:52:42.695Z,14.77
2023-05-10T03:54:47.856Z,14.77
2023-05-10T03:56:50.438Z,14.72
2023-05-10T03:58:54.349Z,14.73
2023-05-10T04:00:56.987Z,14.77
2023-05-10T04:02:59.675Z,14.78
2023-05-10T04:05:02.376Z,14.81
2023-05-10T04:07:05.211Z,14.81
2023-05-10T04:09:07.762Z,14.83
2023-05-10T04:11:11.438Z,14.75
2023-05-10T04:13:14.026Z,14.69
2023-05-10T04:15:18.303Z,14.70
2023-05-10T04:17:20.906Z,14.74
2023-05-10T04:19:23.558Z,14.77
2023-05-10T04:21:26.274Z,14.81
2023-05-10T04:23:29.065Z,14.75
2023-05-10T04:25:31.604Z,14.75
2023-05-10T04:27:34.204Z,14.78
2023-05-10T04:29:36.775Z,14.79
2023-05-10T04:31:40.680Z,14.65
2023-05-10T04:33:43.233Z,14.69
2023-05-10T04:35:46.299Z,14.73
2023-05-10T04:37:48.902Z,14.72
2023-05-10T04:39:51.452Z,14.66
2023-05-10T04:41:54.092Z,14.66
2023-05-10T04:43:56.694Z,14.67
2023-05-10T04:45:59.334Z,14.72
2023-05-10T04:48:03.299Z,14.74
2023-05-10T04:50:07.293Z,14.78
2023-05-10T04:52:09.831Z,14.79
2023-05-10T04:54:12.450Z,14.82
2023-05-10T04:56:15.061Z,14.79
2023-05-10T04:58:17.768Z,14.78
2023-05-10T05:00:21.177Z,14.79
2023-05-10T05:02:24.658Z,14.60
2023-05-10T05:04:28.579Z,14.65
2023-05-10T05:06:31.254Z,14.54
2023-05-10T05:08:33.856Z,14.54
2023-05-10T05:10:36.419Z,14.51
2023-05-10T05:12:38.994Z,14.51
2023-05-10T05:14:42.174Z,14.54
2023-05-10T05:16:44.811Z,14.58
2023-05-10T05:18:47.436Z,14.45
2023-05-10T05:20:51.330Z,14.41
2023-05-10T05:22:53.873Z,14.36
2023-05-10T05:24:56.499Z,14.28
2023-05-10T05:26:59.058Z,14.35
2023-05-10T05:29:01.636Z,14.35
2023-05-10T05:31:04.215Z,14.24
2023-05-10T05:33:07.291Z,14.32
2023-05-10T05:35:10.204Z,14.39
2023-05-10T05:37:16.362Z,14.44
2023-05-10T05:39:18.924Z,14.29
2023-05-10T05:41:22.485Z,14.31
2023-05-10T05:43:25.681Z,14.38
2023-05-10T05:45:28.250Z,14.46
2023-05-10T05:47:30.836Z,14.53
2023-05-10T05:49:33.890Z,14.50
2023-05-10T05:51:36.570Z,14.55
2023-05-10T05:53:40.508Z,14.34
2023-05-10T05:55:52.430Z,14.25
2023-05-10T05:57:55.181Z,14.36
2023-05-10T05:59:57.843Z,14.24
2023-05-10T06:02:01.564Z,13.87
2023-05-10T06:04:04.819Z,13.80
2023-05-10T06:06:07.576Z,13.85
2023-05-10T06:08:10.185Z,13.80
2023-05-10T06:10:14.181Z,13.64
2023-05-10T06:12:16.922Z,13.78
2023-05-10T06:14:19.537Z,13.90
2023-05-10T06:16:22.158Z,13.94
2023-05-10T06:18:24.739Z,13.90
2023-05-10T06:20:27.633Z,14.00
2023-05-10T06:22:30.261Z,14.10
2023-05-10T06:24:32.828Z,14.07
2023-05-10T06:26:36.792Z,13.90
2023-05-10T06:28:40.140Z,14.06
2023-05-10T06:30:42.703Z,14.11
2023-05-10T06:32:46.188Z,14.04
2023-05-10T06:34:48.797Z,14.07
2023-05-10T06:36:51.343Z,14.03
2023-05-10T06:38:53.956Z,14.09
2023-05-10T06:40:56.632Z,14.00
2023-05-10T06:43:00.588Z,14.15
2023-05-10T06:45:03.427Z,14.23
2023-05-10T06:47:06.123Z,14.14
2023-05-10T06:49:08.785Z,13.97
2023-05-10T06:51:11.528Z,14.07
2023-05-10T06:53:14.212Z,14.12
2023-05-10T06:55:17.007Z,14.17
2023-05-10T06:57:31.189Z,14.05
2023-05-10T06:59:37.221Z,14.17
2023-05-10T07:01:39.871Z,14.22
2023-05-10T07:03:42.490Z,14.33
2023-05-10T07:05:45.168Z,14.44
2023-05-10T07:07:47.774Z,14.53
2023-05-10T07:09:51.001Z,14.54
2023-05-10T07:11:53.614Z,14.60
2023-05-10T07:13:56.176Z,14.65
2023-05-10T07:16:00.485Z,14.63
2023-05-10T07:18:03.143Z,14.57
2023-05-10T07:20:07.033Z,14.63
2023-05-10T07:22:09.680Z,14.50
2023-05-10T07:24:12.224Z,14.49
2023-05-10T07:26:15.854Z,14.38
2023-05-10T07:28:18.497Z,14.31
2023-05-10T07:30:21.297Z,14.33
2023-05-10T07:32:25.437Z,14.30
2023-05-10T07:34:28.489Z,14.42
2023-05-10T07:36:32.991Z,14.42
2023-05-10T07:38:35.541Z,14.28
2023-05-10T07:40:38.265Z,14.12
2023-05-10T07:42:41.199Z,14.27
2023-05-10T07:44:44.270Z,14.36
2023-05-10T07:46:46.828Z,14.34
2023-05-10T07:48:50.758Z,14.31
2023-05-10T07:50:53.366Z,14.38
2023-05-10T07:52:56.093Z,14.45
2023-05-10T07:54:58.660Z,14.34
2023-05-10T07:57:02.329Z,14.29
2023-05-10T07:59:06.118Z,14.29
2023-05-10T08:01:08.816Z,14.39
2023-05-10T08:03:11.495Z,14.47
2023-05-10T08:05:16.231Z,14.50
2023-05-10T08:07:19.102Z,14.46
2023-05-10T08:09:24.708Z,14.45
2023-05-10T08:11:28.648Z,14.49
2023-05-10T08:13:32.376Z,14.48
2023-05-10T08:15:35.009Z,14.52
2023-05-10T08:17:37.663Z,14.28
2023-05-10T08:19:40.564Z,14.36
2023-05-10T08:21:44.456Z,14.34
2023-05-10T08:23:47.029Z,14.30
2023-05-10T08:25:49.605Z,14.18
2023-05-10T08:27:52.201Z,14.35
2023-05-10T08:29:54.772Z,14.49
2023-05-10T08:31:57.320Z,14.55
2023-05-10T08:33:59.945Z,14.48
2023-05-10T08:36:02.493Z,14.61
2023-05-10T08:38:06.396Z,14.59
2023-05-10T08:40:13.335Z,14.72
2023-05-10T08:42:18.800Z,14.84
2023-05-10T08:44:22.272Z,14.76
2023-05-10T08:46:25.398Z,14.88
2023-05-10T08:48:31.414Z,14.90
2023-05-10T08:50:34.029Z,14.90
2023-05-10T08:52:40.699Z,14.89
2023-05-10T08:54:45.436Z,14.89
2023-05-10T08:56:49.822Z,14.95
2023-05-10T08:58:52.775Z,14.91
2023-05-10T09:00:55.631Z,14.94
2023-05-10T09:02:59.623Z,15.05
2023-05-10T09:05:02.350Z,15.04
2023-05-10T09:07:05.004Z,14.92
2023-05-10T09:09:07.643Z,14.92
2023-05-10T09:11:12.547Z,14.89
2023-05-10T09:13:16.256Z,14.86
2023-05-10T09:15:20.296Z,14.76
2023-05-10T09:17:25.556Z,14.80
2023-05-10T09:19:29.748Z,14.78
2023-05-10T09:21:33.185Z,14.70
2023-05-10T09:23:35.819Z,14.78
2023-05-10T09:25:39.580Z,14.78
2023-05-10T09:27:46.996Z,14.90
2023-05-10T09:29:49.560Z,14.91
2023-05-10T09:31:55.504Z,14.96
2023-05-10T09:33:58.236Z,14.86
2023-05-10T09:36:09.221Z,14.96
2023-05-10T09:38:12.415Z,15.09
2023-05-10T09:40:16.962Z,15.20
2023-05-10T09:42:20.424Z,15.09
2023-05-10T09:44:24.355Z,15.23
2023-05-10T09:46:27.071Z,15.19
2023-05-10T09:48:29.764Z,15.31
2023-05-10T09:50:32.577Z,15.37
2023-05-10T09:52:49.029Z,15.48
2023-05-10T09:54:55.247Z,15.51
2023-05-10T09:56:57.927Z,15.54
2023-05-10T09:59:04.789Z,15.66
2023-05-10T10:01:13.021Z,15.54
2023-05-10T10:03:17.502Z,15.70
2023-05-10T10:05:20.350Z,15.67
2023-05-10T10:07:26.641Z,15.65
2023-05-10T10:09:29.507Z,15.70
2023-05-10T10:11:32.100Z,15.75
2023-05-10T10:13:34.675Z,15.72
2023-05-10T10:15:37.558Z,15.63
2023-05-10T10:17:42.830Z,15.51
2023-05-10T10:19:45.876Z,15.27
2023-05-10T10:21:48.689Z,14.98
2023-05-10T10:23:51.802Z,14.70
2023-05-10T10:25:56.739Z,14.66
2023-05-10T10:28:12.992Z,14.79
2023-05-10T10:30:25.827Z,14.89
2023-05-10T10:32:38.093Z,14.89
2023-05-10T10:34:42.523Z,14.78
2023-05-10T10:36:48.007Z,14.72
2023-05-10T10:39:05.064Z,14.76
2023-05-10T10:41:12.995Z,14.84
2023-05-10T10:43:26.338Z,14.90
2023-05-10T10:45:31.554Z,15.00
2023-05-10T10:47:34.239Z,15.03
2023-05-10T10:49:44.815Z,15.14
2023-05-10T10:52:22.387Z,15.25
2023-05-10T10:54:30.325Z,15.30
2023-05-10T10:56:33.669Z,15.38
2023-05-10T10:58:38.997Z,15.36
2023-05-10T11:00:41.996Z,15.46
2023-05-10T11:02:49.687Z,15.49
2023-05-10T11:04:53.620Z,15.48
2023-05-10T11:07:18.527Z,15.54
2023-05-10T11:09:21.756Z,15.51
2023-05-10T11:11:24.677Z,15.50
2023-05-10T11:13:31.331Z,15.43
2023-05-10T11:15:35.480Z,15.53
2023-05-10T11:17:38.174Z,15.63
2023-05-10T11:20:11.557Z,15.66
2023-05-10T11:22:15.054Z,15.62
2023-05-10T11:24:18.958Z,15.53
2023-05-10T11:26:24.145Z,15.55
2023-05-10T11:28:28.855Z,15.48
2023-05-10T11:30:32.910Z,15.46
2023-05-10T11:32:35.659Z,15.47
2023-05-10T11:34:38.239Z,15.46
2023-05-10T11:36:42.177Z,15.39
2023-05-10T11:38:44.907Z,15.39
2023-05-10T11:40:47.607Z,15.38
2023-05-10T11:42:50.216Z,15.39
2023-05-10T11:44:52.834Z,15.37
2023-05-10T11:46:55.526Z,15.37
2023-05-10T11:49:02.493Z,15.40
2023-05-10T11:51:05.243Z,15.36
2023-05-10T11:53:09.180Z,15.33
2023-05-10T11:55:11.746Z,15.34
2023-05-10T11:57:14.357Z,15.24
2023-05-10T11:59:16.947Z,14.82
2023-05-10T12:01:19.766Z,14.87
2023-05-10T12:03:22.582Z,14.91
2023-05-10T12:05:25.999Z,14.75
2023-05-10T12:07:28.604Z,14.78
2023-05-10T12:09:43.231Z,14.64
2023-05-10T12:11:46.558Z,14.41
2023-05-10T12:13:50.809Z,14.34
2023-05-10T12:15:53.507Z,14.41
2023-05-10T12:17:56.144Z,14.57
2023-05-10T12:20:03.774Z,14.58
2023-05-10T12:22:06.942Z,14.50
2023-05-10T12:24:09.646Z,14.54
2023-05-10T12:26:13.760Z,14.63
2023-05-10T12:28:16.374Z,14.69
2023-05-10T12:30:23.921Z,14.62
2023-05-10T12:32:39.703Z,14.67
2023-05-10T12:34:42.306Z,14.75
2023-05-10T12:36:44.851Z,14.63
2023-05-10T12:38:49.186Z,14.58
2023-05-10T12:40:53.341Z,14.74
2023-05-10T12:42:57.398Z,14.72
2023-05-10T12:45:00.050Z,14.69
2023-05-10T12:47:02.624Z,14.63
2023-05-10T12:49:09.324Z,14.83
2023-05-10T12:51:13.830Z,14.91
2023-05-10T12:53:17.488Z,14.96
2023-05-10T12:55:20.048Z,14.94
2023-05-10T12:57:23.135Z,14.88
2023-05-10T12:59:27.043Z,14.78
2023-05-10T13:01:29.937Z,14.94
2023-05-10T13:03:32.531Z,14.91
2023-05-10T13:05:35.297Z,14.98
2023-05-10T13:07:37.873Z,14.77
2023-05-10T13:09:40.430Z,14.85
2023-05-10T13:11:43.197Z,14.79
2023-05-10T13:13:45.830Z,14.92
2023-05-10T13:15:49.744Z,14.99
2023-05-10T13:17:52.525Z,15.06
2023-05-10T13:19:55.110Z,15.15
2023-05-10T13:21:57.756Z,15.24
2023-05-10T13:24:01.091Z,15.35
2023-05-10T13:26:03.669Z,15.44
2023-05-10T13:28:06.402Z,15.43
2023-05-10T13:30:09.847Z,15.48
2023-05-10T13:32:13.838Z,15.58
2023-05-10T13:34:16.451Z,15.62
2023-05-10T13:36:19.032Z,15.70
2023-05-10T13:38:22.565Z,15.74
2023-05-10T13:40:25.342Z,15.77
2023-05-10T13:42:28.057Z,15.73
2023-05-10T13:44:30.630Z,15.79
2023-05-10T13:46:33.325Z,15.69
2023-05-10T13:48:39.159Z,15.79
2023-05-10T13:50:42.103Z,15.79
2023-05-10T13:52:44.713Z,15.83
2023-05-10T13:54:47.483Z,15.92
2023-05-10T13:56:50.428Z,15.78
2023-05-10T13:58:53.293Z,15.90
2023-05-10T14:00:55.819Z,15.95
2023-05-10T14:02:58.449Z,16.02
2023-05-10T14:05:02.416Z,16.09
2023-05-10T14:07:05.025Z,16.01
2023-05-10T14:09:07.739Z,16.09
2023-05-10T14:11:13.822Z,16.14
2023-05-10T14:13:16.598Z,16.02
2023-05-10T14:15:19.444Z,15.99
2023-05-10T14:17:23.100Z,16.07
2023-05-10T14:19:25.840Z,16.01
2023-05-10T14:21:30.410Z,16.07
2023-05-10T14:23:32.999Z,15.92
2023-05-10T14:25:35.873Z,15.89
2023-05-10T14:27:38.621Z,15.79
2023-05-10T14:29:41.201Z,15.73
2023-05-10T14:31:43.833Z,15.63
2023-05-10T14:33:46.507Z,15.58
2023-05-10T14:35:49.501Z,15.56
2023-05-10T14:37:53.444Z,15.60
2023-05-10T14:39:56.171Z,15.57
2023-05-10T14:41:59.520Z,15.71
2023-05-10T14:44:04.331Z,15.79
2023-05-10T14:46:07.260Z,15.63
2023-05-10T14:48:13.093Z,15.81
2023-05-10T14:50:31.830Z,15.90
2023-05-10T14:52:37.460Z,15.79
2023-05-10T14:54:41.457Z,15.90
2023-05-10T14:56:44.028Z,15.92
2023-05-10T14:58:46.594Z,15.88
2023-05-10T15:00:49.671Z,15.93
2023-05-10T15:02:52.881Z,15.97
2023-05-10T15:04:55.971Z,15.93
2023-05-10T15:07:00.259Z,16.00
2023-05-10T15:09:04.203Z,15.99
2023-05-10T15:11:08.122Z,16.04
2023-05-10T15:13:10.724Z,16.09
2023-05-10T15:15:13.316Z,16.16
2023-05-10T15:17:17.211Z,16.17
2023-05-10T15:19:19.799Z,16.21
2023-05-10T15:21:22.414Z,16.17
2023-05-10T15:23:24.981Z,16.28
2023-05-10T15:25:28.660Z,16.34
2023-05-10T15:27:32.667Z,16.26
2023-05-10T15:29:35.297Z,16.25
2023-05-10T15:31:37.873Z,16.29
2023-05-10T15:33:40.507Z,16.34
2023-05-10T15:35:43.069Z,16.30
2023-05-10T15:37:45.773Z,16.21
2023-05-10T15:39:48.321Z,16.24
2023-05-10T15:41:50.877Z,16.28
2023-05-10T15:43:55.778Z,16.25
2023-05-10T15:45:58.714Z,16.29
2023-05-10T15:48:01.981Z,16.30
2023-05-10T15:50:04.810Z,16.30
2023-05-10T15:52:07.377Z,16.23
2023-05-10T15:54:09.926Z,16.16
2023-05-10T15:56:13.114Z,16.10
2023-05-10T15:58:15.703Z,15.94
2023-05-10T16:00:19.985Z,16.04
2023-05-10T16:02:23.524Z,15.91
2023-05-10T16:04:26.357Z,16.02
2023-05-10T16:06:29.004Z,16.07
2023-05-10T16:08:33.503Z,16.11
2023-05-10T16:10:36.123Z,16.17
2023-05-10T16:12:39.157Z,16.16
2023-05-10T16:14:41.767Z,16.18
2023-05-10T16:16:46.071Z,16.22
2023-05-10T16:18:48.749Z,16.20
2023-05-10T16:20:51.481Z,16.17
2023-05-10T16:22:54.063Z,16.21
2023-05-10T16:24:58.149Z,16.24
2023-05-10T16:27:00.713Z,16.22
2023-05-10T16:29:03.298Z,16.15
2023-05-10T16:31:06.075Z,15.93
2023-05-10T16:33:10.148Z,15.89
2023-05-10T16:35:12.765Z,15.94
2023-05-10T16:37:15.650Z,15.62
2023-05-10T16:39:18.241Z,15.74
2023-05-10T16:41:21.356Z,15.69
2023-05-10T16:43:26.727Z,15.53
2023-05-10T16:45:31.941Z,15.46
2023-05-10T16:47:34.661Z,15.57
2023-05-10T16:49:38.555Z,15.53
2023-05-10T16:51:41.259Z,15.40
2023-05-10T16:53:43.809Z,15.43
2023-05-10T16:55:46.353Z,15.51
2023-05-10T16:57:49.448Z,15.51
2023-05-10T16:59:53.370Z,15.54
2023-05-10T17:01:56.063Z,15.55
2023-05-10T17:03:58.784Z,15.54
2023-05-10T17:06:06.296Z,15.40
2023-05-10T17:08:09.106Z,15.29
2023-05-10T17:10:13.083Z,15.31
2023-05-10T17:12:15.799Z,15.31
2023-05-10T17:14:18.421Z,15.39
2023-05-10T17:16:21.363Z,15.42
2023-05-10T17:18:24.187Z,15.47
2023-05-10T17:20:26.848Z,15.39
2023-05-10T17:22:30.795Z,15.25
2023-05-10T17:24:33.445Z,15.35
2023-05-10T17:26:36.188Z,15.20
2023-05-10T17:28:38.889Z,15.26
2023-05-10T17:30:41.576Z,15.19
2023-05-10T17:32:44.146Z,15.10
2023-05-10T17:34:46.730Z,15.08
2023-05-10T17:36:49.271Z,14.99
2023-05-10T17:38:53.254Z,14.78
2023-05-10T17:40:55.883Z,14.83
2023-05-10T17:42:58.449Z,14.83
2023-05-10T17:45:01.226Z,14.75
2023-05-10T17:47:03.923Z,14.65
2023-05-10T17:49:06.527Z,14.75
2023-05-10T17:51:09.125Z,14.85
2023-05-10T17:53:11.737Z,14.71
2023-05-10T17:55:16.007Z,14.61
2023-05-10T17:57:19.020Z,14.59
2023-05-10T17:59:22.591Z,14.52
2023-05-10T18:01:25.159Z,14.63
2023-05-10T18:03:27.899Z,14.55
2023-05-10T18:05:30.660Z,14.70
2023-05-10T18:07:34.043Z,14.63
2023-05-10T18:09:36.736Z,14.69
2023-05-10T18:11:40.636Z,14.77
2023-05-10T18:13:43.157Z,14.76
2023-05-10T18:15:45.824Z,14.69
2023-05-10T18:17:50.097Z,14.76
2023-05-10T18:19:55.731Z,14.83
2023-05-10T18:22:00.992Z,14.86
2023-05-10T18:24:03.555Z,14.95
2023-05-10T18:26:06.204Z,14.93
2023-05-10T18:28:10.173Z,15.00
2023-05-10T18:30:14.119Z,15.05
2023-05-10T18:32:16.674Z,14.98
2023-05-10T18:34:19.993Z,15.03
2023-05-10T18:36:24.169Z,15.08
2023-05-10T18:38:26.806Z,15.12
2023-05-10T18:40:29.378Z,15.17
2023-05-10T18:42:31.989Z,15.20
2023-05-10T18:44:35.977Z,15.23
2023-05-10T18:46:38.807Z,15.26
2023-05-10T18:48:41.597Z,15.29
2023-05-10T18:50:44.154Z,15.29
2023-05-10T18:52:46.783Z,15.30
2023-05-10T18:54:50.722Z,15.32
2023-05-10T18:56:53.268Z,15.32
2023-05-10T18:58:55.989Z,15.32
2023-05-10T19:00:59.883Z,15.30
2023-05-10T19:03:02.466Z,15.28
2023-05-10T19:05:05.587Z,15.27
2023-05-10T19:07:08.172Z,15.20
2023-05-10T19:09:10.801Z,15.15
2023-05-10T19:11:13.988Z,15.06
2023-05-10T19:13:16.609Z,15.03
2023-05-10T19:15:21.672Z,14.88
2023-05-10T19:17:26.254Z,14.86
2023-05-10T19:19:28.972Z,14.87
2023-05-10T19:21:32.522Z,14.76
2023-05-10T19:23:35.689Z,14.57
2023-05-10T19:25:39.274Z,14.58
2023-05-10T19:27:41.867Z,14.41
2023-05-10T19:29:44.423Z,14.43
2023-05-10T19:31:47.972Z,14.46
2023-05-10T19:33:52.925Z,14.43
2023-05-10T19:35:56.242Z,14.12
2023-05-10T19:37:58.929Z,13.91
2023-05-10T19:40:01.561Z,13.80
2023-05-10T19:42:05.421Z,13.65
2023-05-10T19:44:08.300Z,13.51
2023-05-10T19:46:10.937Z,13.54
2023-05-10T19:48:13.899Z,13.73
2023-05-10T19:50:18.020Z,13.53
2023-05-10T19:52:20.776Z,13.70
2023-05-10T19:54:23.417Z,13.83
2023-05-10T19:56:26.935Z,13.87
2023-05-10T19:58:29.663Z,13.95
2023-05-10T20:00:32.844Z,14.04
2023-05-10T20:02:35.689Z,14.13
2023-05-10T20:04:38.278Z,14.19
2023-05-10T20:06:42.164Z,14.23
2023-05-10T20:08:44.709Z,14.18
2023-05-10T20:10:47.964Z,14.16
2023-05-10T20:12:52.327Z,14.23
2023-05-10T20:14:55.083Z,14.25
2023-05-10T20:16:57.674Z,14.32
2023-05-10T20:19:00.423Z,14.37
2023-05-10T20:21:03.013Z,14.41
2023-05-10T20:23:06.994Z,14.46
2023-05-10T20:25:10.401Z,14.48
2023-05-10T20:27:13.911Z,14.40
2023-05-10T20:29:16.529Z,14.37
2023-05-10T20:31:19.113Z,14.33
2023-05-10T20:33:22.181Z,14.36
2023-05-10T20:35:24.777Z,14.36
2023-05-10T20:37:28.111Z,14.23
2023-05-10T20:39:31.980Z,14.26
2023-05-10T20:41:34.556Z,14.28
2023-05-10T20:43:37.642Z,14.23
2023-05-10T20:45:40.292Z,14.25
2023-05-10T20:47:42.881Z,14.30
2023-05-10T20:49:45.499Z,14.29
2023-05-10T20:51:48.313Z,14.32
2023-05-10T20:53:50.963Z,14.37
2023-05-10T20:55:54.861Z,14.40
2023-05-10T20:57:57.470Z,14.30
2023-05-10T21:00:00.055Z,14.34
2023-05-10T21:02:02.671Z,14.35
2023-05-10T21:04:05.325Z,14.37
2023-05-10T21:06:07.871Z,14.30
2023-05-10T21:08:10.412Z,14.25
2023-05-10T21:10:12.977Z,14.28
2023-05-10T21:12:16.874Z,14.30
2023-05-10T21:14:19.468Z,14.31
2023-05-10T21:16:22.156Z,14.34
2023-05-10T21:18:24.882Z,14.38
2023-05-10T21:20:27.478Z,14.40
2023-05-10T21:22:30.055Z,14.42
2023-05-10T21:24:33.260Z,14.44
2023-05-10T21:26:36.115Z,14.42
2023-05-10T21:28:42.300Z,14.46
2023-05-10T21:30:44.856Z,14.46
2023-05-10T21:32:47.460Z,14.47
2023-05-10T21:34:50.082Z,14.47
2023-05-10T21:36:55.492Z,14.48
2023-05-10T21:38:58.111Z,14.48
2023-05-10T21:41:01.878Z,14.44
2023-05-10T21:43:04.458Z,14.40
2023-05-10T21:45:09.240Z,14.38
2023-05-10T21:47:11.790Z,14.37
2023-05-10T21:49:14.377Z,14.40
2023-05-10T21:51:16.958Z,14.35
2023-05-10T21:53:19.557Z,14.33
2023-05-10T21:55:22.384Z,14.33
2023-05-10T21:57:25.052Z,14.30
2023-05-10T21:59:27.640Z,14.29
2023-05-10T22:01:31.632Z,14.30
2023-05-10T22:03:34.266Z,14.31
2023-05-10T22:05:36.955Z,14.30
2023-05-10T22:07:39.518Z,14.34
2023-05-10T22:09:42.070Z,14.31
2023-05-10T22:11:44.631Z,14.28
2023-05-10T22:13:47.178Z,14.22
2023-05-10T22:15:49.823Z,14.22
2023-05-10T22:17:53.897Z,14.12
2023-05-10T22:19:56.514Z,14.08
2023-05-10T22:21:59.082Z,14.04
2023-05-10T22:24:01.638Z,14.00
2023-05-10T22:26:04.577Z,14.01
2023-05-10T22:28:08.522Z,14.05
2023-05-10T22:30:11.670Z,13.97
2023-05-10T22:32:14.295Z,14.00
2023-05-10T22:34:18.779Z,13.89
2023-05-10T22:36:21.504Z,13.89
2023-05-10T22:38:24.073Z,13.78
2023-05-10T22:40:26.887Z,13.76
2023-05-10T22:42:30.649Z,13.73
2023-05-10T22:44:33.230Z,13.64
2023-05-10T22:46:36.991Z,13.62
2023-05-10T22:48:39.566Z,13.55
2023-05-10T22:50:43.489Z,13.46
2023-05-10T22:52:46.064Z,13.42
2023-05-10T22:54:48.689Z,13.43
2023-05-10T22:56:51.950Z,13.30
2023-05-10T22:58:54.619Z,13.35
2023-05-10T23:00:57.183Z,13.34
2023-05-10T23:03:00.012Z,13.40
2023-05-10T23:05:02.763Z,13.49
2023-05-10T23:07:06.989Z,13.53
2023-05-10T23:09:09.812Z,13.54
2023-05-10T23:11:12.658Z,13.55
2023-05-10T23:13:15.257Z,13.62
2023-05-10T23:15:17.860Z,13.59
2023-05-10T23:17:20.537Z,13.65
2023-05-10T23:19:24.300Z,13.71
2023-05-10T23:21:27.316Z,13.73
2023-05-10T23:23:33.958Z,13.80
2023-05-10T23:25:36.957Z,13.74
2023-05-10T23:27:39.546Z,13.58
2023-05-10T23:29:42.636Z,13.48
2023-05-10T23:31:47.885Z,13.41
2023-05-10T23:33:50.455Z,13.44
2023-05-10T23:35:53.060Z,13.51
2023-05-10T23:37:55.699Z,13.56
2023-05-10T23:39:59.920Z,13.58
2023-05-10T23:42:03.256Z,13.52
2023-05-10T23:44:06.294Z,13.51
2023-05-10T23:46:08.884Z,13.42
2023-05-10T23:48:13.091Z,13.43
2023-05-10T23:50:15.941Z,13.43
2023-05-10T23:52:18.610Z,13.32
2023-05-10T23:54:21.544Z,13.35
2023-05-10T23:56:26.749Z,13.38
2023-05-10T23:58:29.532Z,13.38
